Time;durP1;ratioP1;P1;durP2;ratioP2;P2;SDS_P1;SDS_P2;PMS_P1;PMS_P2;Temp;Humidity;BMP_temperature;BMP_pressure;BME280_temperature;BME280_humidity;BME280_pressure;Samples;Min_cycle;Max_cycle;Signal;HPM_P1;HPM_P2
2022/10/28 00:01:06;;;;;;;586.00;546.73;;;12.60;31.00;;;;;;5011978;28;20434;-67
2022/10/28 00:03:32;;;;;;;698.30;652.70;;;12.50;31.10;;;;;;5013938;28;20422;-68
2022/10/28 00:06:03;;;;;;;594.33;554.73;;;12.50;31.40;;;;;;5013081;28;20427;-68
2022/10/28 00:08:29;;;;;;;317.23;294.33;;;12.40;31.90;;;;;;5018815;28;21005;-68
2022/10/28 00:11:02;;;;;;;565.27;528.80;;;12.40;32.40;;;;;;5008752;28;20504;-70
2022/10/28 00:13:27;;;;;;;428.60;399.50;;;12.50;33.10;;;;;;4993855;28;20205;-69
2022/10/28 00:15:53;;;;;;;637.50;596.07;;;12.40;32.60;;;;;;5008978;28;20786;-69
2022/10/28 00:18:18;;;;;;;575.20;536.63;;;12.40;33.10;;;;;;5013306;28;20274;-70
2022/10/28 00:20:44;;;;;;;487.23;455.57;;;12.40;33.80;;;;;;5017410;28;20204;-68
2022/10/28 00:23:09;;;;;;;585.57;547.33;;;12.40;33.10;;;;;;5020725;28;20207;-68
2022/10/28 00:25:35;;;;;;;757.40;710.13;;;12.40;33.10;;;;;;5002738;28;20194;-69
2022/10/28 00:28:01;;;;;;;237.90;222.13;;;12.30;33.00;;;;;;5010321;28;20202;-68
2022/10/28 00:30:26;;;;;;;486.23;457.60;;;12.30;33.00;;;;;;5013431;28;20581;-69
2022/10/28 00:32:52;;;;;;;517.70;485.87;;;12.30;33.00;;;;;;5012988;28;20586;-69
2022/10/28 00:35:17;;;;;;;331.23;308.70;;;12.20;32.90;;;;;;5013078;28;20189;-69
2022/10/28 00:37:43;;;;;;;316.07;292.67;;;12.20;32.90;;;;;;5013007;28;20180;-68
2022/10/28 00:40:09;;;;;;;529.03;495.47;;;12.20;33.40;;;;;;5013143;28;20195;-69
2022/10/28 00:42:35;;;;;;;753.13;706.57;;;12.20;33.40;;;;;;5012317;28;20214;-68
2022/10/28 00:45:02;;;;;;;356.80;331.17;;;12.20;32.90;;;;;;5028154;28;20954;-68
2022/10/28 00:47:30;;;;;;;323.70;302.00;;;12.10;32.90;;;;;;5012813;28;20187;-69
2022/10/28 00:50:26;;;;;;;753.93;705.97;;;12.10;33.70;;;;;;5011385;28;20449;-69
2022/10/28 00:52:57;;;;;;;274.13;254.10;;;12.20;32.90;;;;;;5010878;28;20486;-69
2022/10/28 00:55:24;;;;;;;558.57;520.70;;;12.20;33.10;;;;;;5012844;28;20471;-68
2022/10/28 00:57:55;;;;;;;260.60;241.80;;;12.20;32.90;;;;;;5012680;28;20415;-69
2022/10/28 01:00:21;;;;;;;386.07;360.77;;;12.20;32.90;;;;;;5012499;28;20426;-69
2022/10/28 01:02:48;;;;;;;694.23;651.87;;;12.10;32.80;;;;;;4995738;28;20443;-69
2022/10/28 01:05:17;;;;;;;347.63;323.57;;;12.00;34.80;;;;;;4992948;28;20416;-70
2022/10/28 01:07:44;;;;;;;518.63;483.87;;;12.00;35.30;;;;;;4992910;28;20774;-68
2022/10/28 01:10:11;;;;;;;396.50;369.00;;;12.00;34.90;;;;;;5004621;28;20431;-68
2022/10/28 01:12:46;;;;;;;195.80;181.10;;;12.00;34.90;;;;;;5011940;28;20598;-68
2022/10/28 01:15:20;;;;;;;200.50;184.17;;;12.00;34.80;;;;;;5012456;28;20941;-68
2022/10/28 01:18:10;;;;;;;442.13;415.87;;;12.00;35.60;;;;;;5011130;28;20429;-69
2022/10/28 01:20:57;;;;;;;546.03;511.33;;;12.00;35.00;;;;;;5012197;28;20426;-69
2022/10/28 01:23:37;;;;;;;623.47;584.33;;;12.10;34.30;;;;;;5012274;28;20518;-68
2022/10/28 01:26:28;;;;;;;445.43;417.70;;;12.20;33.50;;;;;;5011056;28;20481;-70
2022/10/28 01:29:12;;;;;;;286.37;265.33;;;12.00;34.50;;;;;;5010936;28;20451;-68
2022/10/28 01:31:48;;;;;;;769.33;722.83;;;11.90;35.30;;;;;;5011549;28;20435;-69
2022/10/28 01:34:26;;;;;;;241.30;222.67;;;11.90;35.60;;;;;;5012213;28;20457;-68
2022/10/28 01:37:01;;;;;;;593.43;555.03;;;11.80;35.90;;;;;;5012334;28;20436;-70
2022/10/28 01:39:29;;;;;;;675.93;634.00;;;11.80;36.10;;;;;;5012407;28;20399;-70
2022/10/28 01:42:06;;;;;;;557.33;522.03;;;11.80;37.00;;;;;;5012086;28;20924;-70
2022/10/28 01:45:13;;;;;;;577.10;539.50;;;11.80;37.00;;;;;;5012604;28;20393;-70
2022/10/28 01:47:46;;;;;;;367.40;345.30;;;11.70;37.70;;;;;;5010497;28;20425;-69
2022/10/28 01:50:22;;;;;;;293.20;273.67;;;11.70;37.70;;;;;;5012074;28;20403;-68
2022/10/28 01:52:50;;;;;;;315.07;295.07;;;11.60;37.60;;;;;;4999395;23;20530;-67
2022/10/28 01:55:25;;;;;;;172.60;158.80;;;11.60;37.60;;;;;;4953780;29;20900;-65
2022/10/28 01:57:53;;;;;;;812.33;761.23;;;11.50;37.50;;;;;;4964084;28;20793;-65
2022/10/28 02:00:19;;;;;;;412.30;386.37;;;11.50;37.80;;;;;;4972935;28;20410;-65
2022/10/28 02:02:47;;;;;;;526.93;497.30;;;11.50;39.10;;;;;;4956648;28;20445;-66
2022/10/28 02:05:41;;;;;;;260.23;243.67;;;11.50;37.90;;;;;;4953705;28;20515;-66
2022/10/28 02:08:18;;;;;;;376.00;351.67;;;11.50;38.00;;;;;;4953409;29;20799;-66
2022/10/28 02:10:59;;;;;;;196.03;181.70;;;11.40;37.70;;;;;;4953495;28;20416;-66
2022/10/28 02:13:43;;;;;;;555.33;517.77;;;11.40;37.80;;;;;;4953373;28;20473;-66
2022/10/28 02:16:30;;;;;;;676.03;632.70;;;11.40;37.80;;;;;;4953426;28;20414;-66
2022/10/28 02:19:23;;;;;;;187.10;172.93;;;11.40;38.60;;;;;;4953553;28;20503;-67
2022/10/28 02:22:22;;;;;;;583.63;544.23;;;11.30;38.40;;;;;;4953091;28;20441;-67
2022/10/28 02:25:01;;;;;;;342.57;319.63;;;11.40;38.30;;;;;;4952276;28;20432;-66
2022/10/28 02:27:42;;;;;;;376.37;350.20;;;11.30;38.40;;;;;;4953227;29;20437;-66
2022/10/28 02:30:17;;;;;;;372.50;346.53;;;11.30;39.50;;;;;;4951926;29;20422;-67
2022/10/28 02:32:49;;;;;;;171.63;157.17;;;11.30;38.90;;;;;;4953013;28;20453;-66
2022/10/28 02:35:24;;;;;;;567.23;532.40;;;11.20;38.60;;;;;;4953277;28;20418;-66
2022/10/28 02:37:52;;;;;;;638.83;600.07;;;11.20;38.40;;;;;;4953190;28;20927;-66
2022/10/28 02:40:23;;;;;;;158.97;146.17;;;11.20;38.60;;;;;;4951987;28;20445;-66
2022/10/28 02:42:52;;;;;;;456.90;424.40;;;11.10;39.30;;;;;;4956231;28;20433;-66
2022/10/28 02:45:21;;;;;;;581.90;545.13;;;11.20;39.40;;;;;;4956689;28;20417;-67
2022/10/28 02:47:53;;;;;;;297.93;279.50;;;11.20;38.70;;;;;;4956724;28;20426;-66
2022/10/28 02:50:24;;;;;;;525.67;491.40;;;11.20;39.10;;;;;;4956833;28;20422;-66
2022/10/28 02:52:55;;;;;;;286.13;266.93;;;11.10;38.30;;;;;;4956137;28;20476;-66
2022/10/28 02:55:26;;;;;;;639.13;595.93;;;11.10;38.60;;;;;;4956674;29;20437;-66
2022/10/28 02:57:51;;;;;;;657.93;617.73;;;11.10;38.80;;;;;;4956494;28;20435;-67
2022/10/28 03:00:21;;;;;;;258.10;240.03;;;11.10;38.90;;;;;;4956398;29;20954;-66
2022/10/28 03:02:46;;;;;;;309.73;288.93;;;11.10;39.10;;;;;;4956263;28;20590;-67
2022/10/28 03:05:13;;;;;;;211.00;195.33;;;11.10;38.80;;;;;;4956483;29;20435;-67
2022/10/28 03:07:38;;;;;;;399.53;376.50;;;11.10;39.50;;;;;;4956266;28;20187;-66
2022/10/28 03:10:04;;;;;;;643.57;602.20;;;11.10;39.20;;;;;;4956317;28;20475;-67
2022/10/28 03:12:30;;;;;;;374.53;349.53;;;11.10;39.10;;;;;;4955920;28;20243;-67
2022/10/28 03:14:55;;;;;;;379.80;353.70;;;11.10;40.00;;;;;;4956205;28;20464;-67
2022/10/28 03:17:21;;;;;;;359.27;335.20;;;11.10;39.10;;;;;;4956075;28;20249;-67
2022/10/28 03:19:46;;;;;;;382.77;358.23;;;11.10;39.00;;;;;;4956263;29;20185;-67
2022/10/28 03:22:12;;;;;;;281.37;263.63;;;11.10;39.80;;;;;;4955926;28;20213;-67
2022/10/28 03:24:37;;;;;;;535.03;500.07;;;11.10;38.80;;;;;;4956193;28;20187;-67
2022/10/28 03:27:03;;;;;;;539.00;505.17;;;11.10;39.50;;;;;;4955747;28;20198;-67
2022/10/28 03:29:28;;;;;;;353.87;329.00;;;11.10;40.30;;;;;;4956122;28;20179;-67
2022/10/28 03:31:54;;;;;;;412.00;386.60;;;11.20;39.60;;;;;;4955554;28;20202;-67
2022/10/28 03:34:20;;;;;;;856.87;801.93;;;11.20;39.60;;;;;;4956006;28;20240;-67
2022/10/28 03:36:45;;;;;;;497.37;464.60;;;11.30;39.20;;;;;;4955893;28;20595;-67
2022/10/28 03:39:11;;;;;;;543.20;509.30;;;11.40;39.50;;;;;;4955733;28;20321;-67
2022/10/28 03:41:36;;;;;;;607.43;569.20;;;11.40;39.30;;;;;;4955440;28;20187;-67
2022/10/28 03:44:02;;;;;;;342.27;319.97;;;11.50;39.10;;;;;;4955816;28;20185;-67
2022/10/28 03:46:27;;;;;;;766.47;717.20;;;11.50;39.10;;;;;;4955797;28;20208;-67
2022/10/28 03:48:53;;;;;;;567.10;530.17;;;11.50;39.20;;;;;;4955689;29;20182;-67
2022/10/28 03:51:18;;;;;;;593.13;553.87;;;11.50;39.20;;;;;;4954202;28;20186;-67
2022/10/28 03:53:44;;;;;;;581.93;543.53;;;11.60;39.00;;;;;;4954976;28;20213;-67
2022/10/28 03:56:10;;;;;;;412.90;385.13;;;11.60;39.10;;;;;;4955351;28;20179;-67
2022/10/28 03:58:36;;;;;;;678.07;634.87;;;11.70;39.20;;;;;;4955502;28;20281;-67
2022/10/28 04:01:02;;;;;;;708.43;661.23;;;11.70;37.80;;;;;;4953991;28;20510;-67
2022/10/28 04:03:27;;;;;;;695.07;648.77;;;11.70;37.70;;;;;;4955387;28;20777;-66
2022/10/28 04:05:53;;;;;;;540.87;503.60;;;11.80;37.00;;;;;;4955487;29;20666;-67
2022/10/28 04:08:19;;;;;;;534.50;498.30;;;11.90;36.40;;;;;;4954974;29;20192;-67
2022/10/28 04:10:46;;;;;;;869.00;813.50;;;11.90;36.30;;;;;;4955094;28;20189;-67
2022/10/28 04:13:11;;;;;;;488.77;461.97;;;11.90;36.50;;;;;;4954983;28;20483;-67
2022/10/28 04:15:37;;;;;;;678.60;633.03;;;11.90;36.70;;;;;;4955239;28;20496;-67
2022/10/28 04:18:03;;;;;;;619.27;580.37;;;12.00;37.00;;;;;;4955096;28;20186;-67
2022/10/28 04:20:29;;;;;;;542.13;504.70;;;12.00;36.80;;;;;;4955210;28;20172;-67
2022/10/28 04:22:55;;;;;;;547.47;510.17;;;12.00;36.50;;;;;;4954865;28;20441;-67
2022/10/28 04:25:21;;;;;;;288.47;270.37;;;12.10;36.20;;;;;;4955068;28;20843;-67
2022/10/28 04:27:46;;;;;;;564.70;529.00;;;12.20;35.40;;;;;;4954832;28;20193;-67
2022/10/28 04:30:13;;;;;;;461.03;430.57;;;12.30;35.00;;;;;;4954893;28;20476;-67
2022/10/28 04:32:39;;;;;;;764.50;714.07;;;12.30;35.30;;;;;;4954695;28;20201;-67
2022/10/28 04:35:05;;;;;;;344.23;321.63;;;12.30;35.70;;;;;;4954705;28;20827;-67
2022/10/28 04:37:30;;;;;;;673.23;630.83;;;12.30;35.70;;;;;;4954696;28;20425;-67
2022/10/28 04:39:56;;;;;;;692.50;648.23;;;12.30;35.60;;;;;;4954646;28;20232;-67
2022/10/28 04:42:22;;;;;;;639.43;595.93;;;12.40;35.70;;;;;;4954393;28;20254;-67
2022/10/28 04:44:48;;;;;;;455.77;423.80;;;12.30;35.80;;;;;;4953420;28;20576;-67
2022/10/28 04:47:15;;;;;;;727.87;680.50;;;12.40;35.50;;;;;;4953182;28;20474;-67
2022/10/28 04:49:40;;;;;;;672.83;627.60;;;12.50;34.70;;;;;;4954791;28;20190;-67
2022/10/28 04:52:06;;;;;;;421.43;392.83;;;12.50;35.00;;;;;;4954029;28;20471;-67
2022/10/28 04:54:31;;;;;;;402.43;379.53;;;12.50;34.30;;;;;;4954224;29;20248;-67
2022/10/28 04:56:57;;;;;;;493.97;459.80;;;12.60;34.60;;;;;;4954355;29;20184;-67
2022/10/28 04:59:23;;;;;;;521.47;487.90;;;12.50;34.40;;;;;;4954410;28;20207;-67
2022/10/28 05:01:48;;;;;;;300.73;278.43;;;12.60;34.40;;;;;;4945659;28;20201;-67
2022/10/28 05:04:14;;;;;;;826.40;771.80;;;12.60;34.80;;;;;;4934627;29;20222;-67
2022/10/28 05:06:39;;;;;;;396.23;368.67;;;12.70;34.20;;;;;;4937263;29;21550;-67
2022/10/28 05:09:05;;;;;;;699.03;654.40;;;12.70;34.50;;;;;;4954084;28;20252;-67
2022/10/28 05:11:30;;;;;;;629.50;589.47;;;12.70;34.20;;;;;;4953757;28;20612;-67
2022/10/28 05:13:56;;;;;;;665.00;620.13;;;12.70;34.20;;;;;;4953982;28;20581;-67
2022/10/28 05:16:21;;;;;;;515.70;481.10;;;12.70;35.00;;;;;;4953832;28;20188;-67
2022/10/28 05:18:47;;;;;;;532.57;497.67;;;12.80;33.40;;;;;;4953942;28;20181;-67
2022/10/28 05:21:13;;;;;;;367.60;341.13;;;12.70;33.70;;;;;;4953810;28;20178;-68
2022/10/28 05:23:38;;;;;;;701.07;654.83;;;12.70;33.40;;;;;;4953898;28;20291;-68
2022/10/28 05:26:04;;;;;;;591.00;554.73;;;12.60;33.20;;;;;;4953971;28;20533;-67
2022/10/28 05:28:29;;;;;;;612.30;572.60;;;12.60;34.00;;;;;;4953831;28;20186;-68
2022/10/28 05:30:55;;;;;;;103.80;90.83;;;12.50;33.10;;;;;;4953701;28;20196;-68
2022/10/28 05:33:21;;;;;;;551.50;515.47;;;12.40;33.40;;;;;;4952286;28;20714;-68
2022/10/28 05:35:46;;;;;;;351.63;328.57;;;12.40;33.70;;;;;;4953886;28;20182;-68
2022/10/28 05:38:12;;;;;;;551.60;514.80;;;12.40;33.70;;;;;;4953524;29;20440;-68
2022/10/28 05:40:38;;;;;;;591.30;553.43;;;12.50;32.90;;;;;;4953784;29;20197;-68
2022/10/28 05:43:03;;;;;;;492.70;459.53;;;12.60;33.30;;;;;;4953461;28;20725;-68
2022/10/28 05:45:29;;;;;;;396.27;370.63;;;12.50;33.30;;;;;;4953706;28;20184;-68
2022/10/28 05:47:56;;;;;;;478.30;445.87;;;12.50;34.10;;;;;;4953671;28;20185;-68
2022/10/28 05:50:22;;;;;;;609.07;571.97;;;12.60;34.20;;;;;;4953664;28;20516;-68
2022/10/28 05:52:52;;;;;;;514.10;483.03;;;12.60;34.70;;;;;;4953116;28;20564;-67
2022/10/28 05:55:19;;;;;;;484.63;453.80;;;12.70;35.20;;;;;;4953754;28;20424;-67
2022/10/28 05:57:49;;;;;;;777.47;727.27;;;12.70;35.40;;;;;;4953440;28;20524;-67
2022/10/28 06:00:16;;;;;;;336.90;315.43;;;12.80;35.20;;;;;;4953596;28;20417;-67
2022/10/28 06:02:42;;;;;;;413.93;388.80;;;12.80;35.30;;;;;;4937849;28;20489;-67
2022/10/28 06:05:08;;;;;;;486.43;453.17;;;12.90;34.50;;;;;;4934410;29;20461;-66
2022/10/28 06:07:35;;;;;;;171.83;158.23;;;13.00;35.00;;;;;;4942734;29;20193;-67
2022/10/28 06:10:01;;;;;;;621.53;580.00;;;13.10;33.70;;;;;;4937174;28;20508;-67
2022/10/28 06:12:27;;;;;;;368.87;345.90;;;13.20;33.80;;;;;;4934089;29;20517;-67
2022/10/28 06:14:52;;;;;;;601.07;562.53;;;13.20;33.80;;;;;;4934136;29;20434;-66
2022/10/28 06:17:18;;;;;;;618.00;579.00;;;13.20;33.80;;;;;;4942815;29;20189;-67
2022/10/28 06:19:43;;;;;;;714.07;667.33;;;13.20;33.80;;;;;;4959026;29;20192;-67
2022/10/28 06:22:10;;;;;;;298.53;278.57;;;13.20;33.80;;;;;;4957567;28;20213;-67
2022/10/28 06:24:35;;;;;;;822.07;770.70;;;13.20;33.80;;;;;;4958255;28;20177;-67
2022/10/28 06:27:01;;;;;;;678.87;634.93;;;13.20;33.80;;;;;;4956981;28;20442;-67
2022/10/28 06:29:26;;;;;;;611.07;568.80;;;13.20;33.80;;;;;;4957242;28;20720;-67
2022/10/28 06:31:52;;;;;;;683.90;637.47;;;13.20;33.80;;;;;;4956737;28;20276;-67
2022/10/28 06:34:17;;;;;;;591.93;553.07;;;13.30;33.90;;;;;;4956966;29;20237;-66
2022/10/28 06:36:43;;;;;;;657.93;614.93;;;13.30;33.90;;;;;;4956422;28;20184;-67
2022/10/28 06:39:08;;;;;;;825.37;770.43;;;13.30;34.60;;;;;;4956818;28;20546;-67
2022/10/28 06:41:34;;;;;;;811.50;756.33;;;13.30;33.90;;;;;;4956259;28;20177;-67
2022/10/28 06:44:00;;;;;;;494.80;462.63;;;13.30;33.90;;;;;;4957061;28;20264;-67
2022/10/28 06:46:25;;;;;;;746.63;696.80;;;13.30;33.90;;;;;;4956218;28;20215;-67
2022/10/28 06:48:53;;;;;;;313.57;289.87;;;13.40;33.90;;;;;;4956608;28;20528;-67
2022/10/28 06:51:18;;;;;;;779.70;730.43;;;13.50;34.00;;;;;;4956130;29;20224;-67
2022/10/28 06:53:48;;;;;;;459.47;428.30;;;13.50;33.00;;;;;;4956357;28;20508;-67
2022/10/28 06:56:13;;;;;;;695.20;649.80;;;13.60;32.20;;;;;;4956349;28;20178;-67
2022/10/28 06:58:39;;;;;;;740.17;692.27;;;13.60;32.80;;;;;;4956566;28;20413;-67
2022/10/28 07:01:04;;;;;;;821.27;767.90;;;13.60;32.90;;;;;;4953693;28;20178;-67
2022/10/28 07:03:31;;;;;;;796.47;743.83;;;13.60;32.40;;;;;;4937244;29;20664;-67
2022/10/28 07:05:58;;;;;;;764.90;715.13;;;13.60;32.60;;;;;;4937093;29;20669;-67
2022/10/28 07:08:23;;;;;;;753.13;702.80;;;13.70;31.80;;;;;;4955336;29;20444;-67
2022/10/28 07:10:54;;;;;;;301.03;278.80;;;13.70;32.60;;;;;;4955783;28;20442;-67
2022/10/28 07:13:19;;;;;;;728.27;680.33;;;13.80;32.30;;;;;;4956145;28;20263;-67
2022/10/28 07:15:50;;;;;;;846.03;790.33;;;13.90;32.20;;;;;;4956183;28;20497;-66
2022/10/28 07:18:15;;;;;;;240.97;221.13;;;13.90;32.40;;;;;;4956030;29;20182;-67
2022/10/28 07:20:41;;;;;;;330.40;307.00;;;14.00;32.60;;;;;;4956058;29;20509;-67
2022/10/28 07:23:07;;;;;;;595.03;555.50;;;14.10;32.20;;;;;;4956315;28;20226;-67
2022/10/28 07:25:33;;;;;;;398.50;371.13;;;14.20;30.80;;;;;;4956140;28;20640;-67
2022/10/28 07:27:59;;;;;;;569.97;531.93;;;14.40;30.80;;;;;;4954105;28;20433;-67
2022/10/28 07:30:26;;;;;;;712.53;665.40;;;14.60;29.90;;;;;;4956110;28;20263;-67
2022/10/28 07:32:52;;;;;;;435.30;403.40;;;14.70;29.50;;;;;;4955232;28;21018;-67
2022/10/28 07:35:17;;;;;;;517.33;480.43;;;14.90;27.60;;;;;;4955939;28;20421;-67
2022/10/28 07:37:43;;;;;;;360.33;333.47;;;15.10;26.10;;;;;;4955672;28;20274;-67
2022/10/28 07:40:09;;;;;;;440.83;408.13;;;15.30;26.20;;;;;;4955785;28;20186;-67
2022/10/28 07:42:34;;;;;;;785.90;730.53;;;15.50;26.00;;;;;;4955491;28;20202;-67
2022/10/28 07:45:00;;;;;;;324.57;299.90;;;15.50;25.40;;;;;;4955747;28;20472;-66
2022/10/28 07:47:26;;;;;;;362.50;334.90;;;15.60;23.60;;;;;;4955420;28;20609;-65
2022/10/28 07:49:53;;;;;;;379.60;349.90;;;15.60;22.70;;;;;;4954869;28;20193;-66
2022/10/28 07:52:19;;;;;;;708.03;659.17;;;15.60;23.10;;;;;;4955357;28;20301;-68
2022/10/28 07:54:45;;;;;;;239.03;220.30;;;15.70;22.30;;;;;;4953687;28;20440;-66
2022/10/28 07:57:10;;;;;;;685.33;634.57;;;15.50;22.60;;;;;;4956408;28;20429;-66
2022/10/28 07:59:36;;;;;;;858.00;794.40;;;15.60;22.20;;;;;;4955923;28;21052;-66
2022/10/28 08:02:02;;;;;;;738.20;681.57;;;15.60;22.70;;;;;;4947301;28;20664;-66
2022/10/28 08:04:31;;;;;;;829.87;765.23;;;15.60;23.30;;;;;;4955340;28;20189;-67
2022/10/28 08:06:57;;;;;;;830.23;769.83;;;15.70;22.30;;;;;;4955395;28;20619;-66
2022/10/28 08:09:22;;;;;;;512.93;473.70;;;15.70;22.70;;;;;;4955254;28;20426;-67
2022/10/28 08:11:48;;;;;;;436.13;401.90;;;15.90;22.40;;;;;;4954832;28;20194;-66
2022/10/28 08:14:14;;;;;;;267.70;245.87;;;15.90;22.40;;;;;;4954887;29;20259;-67
2022/10/28 08:16:39;;;;;;;833.03;769.13;;;16.10;22.50;;;;;;4950727;28;20277;-66
2022/10/28 08:19:05;;;;;;;792.90;737.43;;;16.20;21.70;;;;;;4951377;28;20193;-65
2022/10/28 08:21:31;;;;;;;617.50;569.50;;;16.20;21.40;;;;;;4950081;28;20252;-66
2022/10/28 08:23:56;;;;;;;813.43;754.17;;;16.20;21.60;;;;;;4951435;28;20280;-66
2022/10/28 08:26:22;;;;;;;693.60;641.73;;;16.20;21.40;;;;;;4951008;29;20220;-66
2022/10/28 08:28:48;;;;;;;578.33;533.20;;;16.30;21.20;;;;;;4950643;29;20194;-66
2022/10/28 08:31:13;;;;;;;704.53;653.77;;;16.30;21.30;;;;;;4950878;29;20585;-67
2022/10/28 08:33:43;;;;;;;589.63;544.70;;;16.40;21.00;;;;;;4950094;28;20578;-68
2022/10/28 08:36:13;;;;;;;535.70;496.70;;;16.60;20.60;;;;;;4950437;28;20193;-68
2022/10/28 08:38:41;;;;;;;871.20;807.23;;;16.80;19.80;;;;;;4950502;28;20789;-67
2022/10/28 08:41:28;;;;;;;356.67;329.73;;;17.00;19.50;;;;;;4950799;28;20601;-67
2022/10/28 08:43:57;;;;;;;454.90;420.80;;;17.20;19.00;;;;;;4950259;28;20429;-68
2022/10/28 08:46:47;;;;;;;835.67;772.80;;;17.50;19.10;;;;;;4951014;28;20517;-68
2022/10/28 08:49:16;;;;;;;800.90;742.53;;;17.70;17.10;;;;;;4950455;28;20456;-67
2022/10/28 08:51:56;;;;;;;474.27;438.03;;;18.00;16.60;;;;;;4950385;28;20507;-68
2022/10/28 08:55:01;;;;;;;615.53;569.73;;;18.20;15.40;;;;;;4949750;28;20528;-68
2022/10/28 08:57:53;;;;;;;732.10;676.33;;;18.40;14.50;;;;;;4950366;28;20511;-66
2022/10/28 09:00:25;;;;;;;926.77;854.93;;;18.50;15.50;;;;;;4950112;28;20481;-67
2022/10/28 09:03:16;;;;;;;790.07;728.50;;;18.60;14.60;;;;;;4949642;28;20568;-68
2022/10/28 09:05:49;;;;;;;940.40;866.53;;;18.70;14.00;;;;;;4950656;29;20787;-68
2022/10/28 09:08:22;;;;;;;901.23;833.60;;;18.80;13.70;;;;;;4949254;29;20525;-68
2022/10/28 09:11:05;;;;;;;831.80;766.07;;;18.90;13.50;;;;;;4949804;28;21018;-67
2022/10/28 09:13:36;;;;;;;977.97;902.70;;;18.90;13.40;;;;;;4951270;28;20472;-67
2022/10/28 09:16:10;;;;;;;921.20;852.33;;;19.10;13.80;;;;;;4945070;28;20441;-67
2022/10/28 09:18:38;;;;;;;868.80;803.97;;;19.20;13.80;;;;;;4948337;28;20461;-68
2022/10/28 09:21:11;;;;;;;315.80;293.77;;;19.40;13.70;;;;;;4950169;28;20441;-67
2022/10/28 09:23:48;;;;;;;952.30;882.00;;;19.50;13.20;;;;;;4947511;28;20581;-67
2022/10/28 09:26:37;;;;;;;936.57;868.47;;;19.60;12.60;;;;;;4935492;29;20425;-67
2022/10/28 09:29:18;;;;;;;600.37;556.27;;;19.70;13.30;;;;;;4929273;29;20415;-67
2022/10/28 09:31:47;;;;;;;686.87;633.80;;;19.80;11.90;;;;;;4940372;29;20444;-67
2022/10/28 09:34:45;;;;;;;668.73;616.90;;;20.00;11.40;;;;;;4944339;28;20548;-67
2022/10/28 09:37:21;;;;;;;695.60;638.57;;;19.90;11.60;;;;;;4920558;29;20450;-67
2022/10/28 09:39:58;;;;;;;510.20;469.23;;;19.80;11.60;;;;;;4930609;29;20434;-67
2022/10/28 09:42:28;;;;;;;479.67;443.77;;;19.80;12.30;;;;;;4935010;29;20507;-68
2022/10/28 09:45:00;;;;;;;916.10;838.00;;;19.80;12.90;;;;;;4949607;28;20430;-68
2022/10/28 09:47:39;;;;;;;697.73;641.10;;;19.60;11.80;;;;;;4950566;28;20457;-67
2022/10/28 09:50:15;;;;;;;548.17;505.70;;;19.50;16.40;;;;;;4953546;28;20480;-67
2022/10/28 09:52:52;;;;;;;758.27;697.43;;;19.40;12.50;;;;;;4956567;28;20477;-67
2022/10/28 09:55:19;;;;;;;955.63;876.00;;;19.20;12.90;;;;;;4955740;28;20425;-67
2022/10/28 09:57:45;;;;;;;574.80;531.80;;;19.20;13.30;;;;;;4955664;28;20422;-67
2022/10/28 10:00:13;;;;;;;879.77;809.77;;;19.10;13.70;;;;;;4956018;28;20532;-66
2022/10/28 10:02:39;;;;;;;686.40;633.70;;;18.80;14.90;;;;;;4955455;28;20552;-67
2022/10/28 10:05:17;;;;;;;822.83;757.73;;;18.60;15.20;;;;;;4959640;29;20986;-66
2022/10/28 10:07:47;;;;;;;539.37;499.00;;;18.70;15.60;;;;;;4959918;28;20745;-67
2022/10/28 10:10:19;;;;;;;910.10;838.63;;;18.90;14.60;;;;;;4960874;28;20426;-66
2022/10/28 10:12:48;;;;;;;726.30;668.20;;;18.90;14.80;;;;;;4959194;28;20480;-67
2022/10/28 10:15:25;;;;;;;877.03;804.20;;;19.00;15.40;;;;;;4959878;28;20425;-66
2022/10/28 10:17:53;;;;;;;1040.90;947.77;;;19.10;14.50;;;;;;4960147;28;20970;-67
2022/10/28 10:20:20;;;;;;;926.17;849.27;;;19.30;14.50;;;;;;4940857;29;20505;-67
2022/10/28 10:22:48;;;;;;;738.50;678.73;;;19.40;13.60;;;;;;4940318;29;20446;-67
2022/10/28 10:25:19;;;;;;;803.27;740.70;;;19.40;13.90;;;;;;4958275;28;20436;-67
2022/10/28 10:27:56;;;;;;;1020.87;934.77;;;19.60;13.40;;;;;;4959964;28;20453;-67
2022/10/28 10:30:36;;;;;;;811.83;753.07;;;19.70;13.60;;;;;;4959723;28;20421;-67
2022/10/28 10:33:03;;;;;;;519.37;479.53;;;20.00;12.70;;;;;;4959341;28;20473;-68
2022/10/28 10:35:39;;;;;;;730.03;677.23;;;20.20;12.30;;;;;;4954816;28;20928;-67
2022/10/28 10:38:06;;;;;;;883.57;812.57;;;20.40;11.40;;;;;;4940248;29;20784;-66
2022/10/28 10:40:45;;;;;;;887.27;817.83;;;20.40;11.40;;;;;;4940490;29;20717;-67
2022/10/28 10:43:17;;;;;;;633.87;587.63;;;20.40;10.70;;;;;;4940398;29;20548;-67
2022/10/28 10:45:58;;;;;;;838.93;771.93;;;20.60;10.10;;;;;;4940372;29;20422;-67
2022/10/28 10:48:23;;;;;;;622.27;575.13;;;20.70;10.60;;;;;;4951967;29;20787;-66
2022/10/28 10:50:50;;;;;;;716.20;660.83;;;20.70;10.00;;;;;;4958980;28;20425;-66
2022/10/28 10:53:19;;;;;;;502.23;461.87;;;20.70;10.00;;;;;;4959219;28;20644;-66
2022/10/28 10:55:57;;;;;;;919.27;843.73;;;21.00;9.80;;;;;;4948590;29;20797;-66
2022/10/28 10:58:25;;;;;;;963.23;879.73;;;21.30;9.80;;;;;;4959560;28;20421;-66
2022/10/28 11:00:53;;;;;;;941.90;864.93;;;21.70;8.80;;;;;;4958968;28;20424;-68
2022/10/28 11:03:37;;;;;;;798.63;737.17;;;21.90;8.80;;;;;;4957176;28;20947;-68
2022/10/28 11:06:06;;;;;;;811.60;748.57;;;22.00;7.30;;;;;;4956100;28;20441;-68
2022/10/28 11:08:41;;;;;;;664.73;612.90;;;21.90;8.00;;;;;;4956511;28;20422;-67
2022/10/28 11:11:10;;;;;;;594.47;540.23;;;21.80;7.60;;;;;;4956181;29;20953;-67
2022/10/28 11:13:36;;;;;;;673.60;621.57;;;21.60;8.70;;;;;;4956276;28;20572;-69
2022/10/28 11:16:05;;;;;;;608.17;560.87;;;21.70;8.80;;;;;;4955991;28;20422;-68
2022/10/28 11:18:40;;;;;;;986.50;903.37;;;21.70;8.80;;;;;;4956488;28;20787;-68
2022/10/28 11:21:21;;;;;;;949.23;868.00;;;21.60;8.70;;;;;;4955997;28;20421;-69
2022/10/28 11:24:21;;;;;;;708.20;654.77;;;21.50;8.60;;;;;;4956299;28;20895;-68
2022/10/28 11:27:06;;;;;;;872.33;803.17;;;21.40;8.50;;;;;;4934652;28;20476;-68
2022/10/28 11:29:31;;;;;;;509.13;468.90;;;21.40;8.90;;;;;;4956112;28;20458;-68
2022/10/28 11:32:15;;;;;;;1032.07;951.93;;;21.30;8.80;;;;;;4938391;29;21027;-68
2022/10/28 11:34:45;;;;;;;1004.33;925.57;;;21.20;9.30;;;;;;4936844;29;20644;-68
2022/10/28 11:37:25;;;;;;;773.93;711.47;;;21.20;9.60;;;;;;4939985;29;20453;-67
2022/10/28 11:39:54;;;;;;;1002.07;923.80;;;21.10;9.60;;;;;;4955651;28;20489;-68
2022/10/28 11:42:30;;;;;;;727.37;667.27;;;21.10;10.60;;;;;;4955523;28;20440;-67
2022/10/28 11:45:19;;;;;;;841.70;774.63;;;21.10;9.50;;;;;;4956161;28;20413;-68
2022/10/28 11:48:14;;;;;;;744.57;684.40;;;21.20;9.10;;;;;;4955789;28;20424;-68
2022/10/28 11:50:53;;;;;;;1033.00;945.70;;;21.30;8.90;;;;;;4956661;28;20912;-68
2022/10/28 11:53:44;;;;;;;872.83;806.67;;;21.30;9.10;;;;;;4955849;28;20990;-68
2022/10/28 11:56:33;;;;;;;838.60;770.33;;;21.50;9.20;;;;;;4954635;28;20453;-68
2022/10/28 11:59:01;;;;;;;824.57;755.93;;;21.60;8.70;;;;;;4955363;28;20900;-67
2022/10/28 12:01:32;;;;;;;919.47;847.63;;;21.70;8.80;;;;;;4949133;28;20577;-69
2022/10/28 12:04:18;;;;;;;938.70;866.40;;;21.70;8.80;;;;;;4935964;29;20422;-69
2022/10/28 12:07:03;;;;;;;914.97;845.23;;;21.90;8.80;;;;;;4936118;29;20828;-68
2022/10/28 12:09:50;;;;;;;1020.43;937.57;;;22.00;9.00;;;;;;4939831;29;20532;-66
2022/10/28 12:12:29;;;;;;;886.27;819.47;;;22.20;9.10;;;;;;4948480;29;20893;-66
2022/10/28 12:15:12;;;;;;;923.53;848.97;;;22.30;8.50;;;;;;4950094;28;20430;-67
2022/10/28 12:17:51;;;;;;;670.60;617.60;;;22.50;7.80;;;;;;4955074;29;20800;-66
2022/10/28 12:20:41;;;;;;;991.50;909.87;;;22.60;7.70;;;;;;4952704;29;20520;-68
2022/10/28 12:23:15;;;;;;;814.83;752.47;;;22.70;7.40;;;;;;4950517;28;20465;-67
2022/10/28 12:25:45;;;;;;;968.50;889.07;;;22.80;7.80;;;;;;4951360;28;20619;-67